Grand Forks, ND

1:37 AM CDT on April 01, 2015 (GMT -0500)
CWOP Grand Forks | | Change Station
CLOSE
Current Station
Personal Weather Station
Location: Grand Forks, ND
Elevation: 840 ft
Nearby Weather Stations

Elev 840 ft 47.89 °N, 97.08 °W | Updated 2 minutes ago

Clear
Clear
47.1 °F
Feels Like 45 °F
N
4.5
Wind Variable Wind from North
Gusts 4.5 mph

Today
High -- | Low -- °F
--% Chance of Precip.
Yesterday
High -- | Low -- °F
Precip. -- in
7:07 AM 7:58 PM
Waxing Gibbous, 91% visible
Pressure 29.72 in
Visibility 10.0 miles
Clouds Clear
Windchill 45 °F
Dew Point 28 °F
Humidity 47%
Rainfall 0.00 in
Snow Depth Not available.
UV 0 out of 12
Pollen 3.90 out of 12
Air Quality Not available.
Flu Activity Not available.
METAR KGFK 010553Z AUTO 12008KT 10SM R35L/2000V2200FT CLR 07/M01 A2970 RMK AO2 SLP062 T00721011 10150 20072 401671017 56019 TSNO

More Conditions Fewer Conditions

Pressure 29.72 in
Visibility 10.0 miles
Clouds Clear
Windchill 45 °F
Dew Point 28 °F
Humidity 47%
Rainfall 0.00 in
Snow Depth Not available.
UV 0 out of 12
Pollen 3.90 out of 12
Air Quality Not available.
Flu Activity Not available.
METAR KGFK 010553Z AUTO 12008KT 10SM R35L/2000V2200FT CLR 07/M01 A2970 RMK AO2 SLP062 T00721011 10150 20072 401671017 56019 TSNO

More Conditions Fewer Conditions

10-Day Weather Forecast

Almanac

Astronomy

Apr. 01, 2015 Rise Set
Actual Time
Civil Twilight
Nautical Twilight
Astronomical Twilight
Moon
Length of Visible Light
Length of Day
Tomorrow will be .
, % of the Moon is Illuminated

Today's Extremes

State Highs State Lows

Community

WunderPhotos

Upload Photos

1,809,924 photos uploaded!

WunderBlogs® & News

Nearby

Air Quality

  Air Quality AQ Index Pollutant
Not available.

Snow Depth

Station Depth Elevation

Earthquake Activity

City Distance Mag. Time & Date
Minimum magnitude displayed is 2.5.

Coastal Water Temperatures

Place Temperature

Stations

Nearby Weather Stations

Station Location Temp. Windchill Dew Point Humidity Wind Precip. Elev Updated Type